Licenciado Manuel Crescencio Rejon Int Airport
MMMD : now visible

Airfield :











YOU CAN JOIN US ON...

 
LOGIN :

Register | Disclaimer

   EN    FR    IT 

 









Legend :    VFR   Marginal VFR   IFR   Intensive IFR   Very Intensive IFR
Visi :
Ceiling :
>= 8 km
>= 3000ft
5 to 8 km
1000 to 3000 ft
1500m to 5 km
500 to 1000 ft
800 to 1500m
200 to 500 ft
< 800m
< 200 ft
Symbols :   Thunderstorms  Fog  Heavy snow  Heavy precipitations  Wind > 20 kt






- Airport Elevation : 38 ft
- IATA code : MID


MMMD - Licenciado Manuel Crescencio Rejon Int

CURRENT METAR :
  • 232345Z 13007KT 5SM -RA BKN020CB 24/23 A2988 RMK SLP120 54000 965 8/300 -RAB35

EXPIRED METARs :
  • 232243Z 07004KT 7SM FEW020CB BKN070 29/24 A2986 RMK 8/370 CI
  • 232141Z 09006KT 7SM SCT025TCU OVC070 30/24 A2984 RMK 8/27/

TAF TAF MMMD
Valid from the 24 at 00:00 until the 25 at 06:00 UTC


232319Z 2400/2506 07004KT P6SM SCT020CB BKN070 TX32/2418Z TN24/2411Z
TEMPO 2400/2404 5SM TSRA BKN020CB OVC070
FM240400 09005KT P6SM BKN020
TEMPO 2410/2414 5SM HZ BKN006
FM241500 12006KT P6SM SCT020
FM241900 12010KT P6SM BKN020
TEMPO 2421/2501 5SM RA



MET'MAP, your aeronautical weather chart ! - Copyright ORBIFLY December 2007 - Disclaimer

ORBIFLY MET'MAP TEAM :

Programming & Development : Alexandra Zaïnal
Concept & Development : Baudouin d'Aumeries
Co-Development & Prog : Marc-Olivier Méhu
Technical & hardware support : Manuel Goepfert

Contact : metmap@orbifly.com




SOURCES & CREDITS :

   NOAA       Earth
Advisory